createdAt,value
2022-08-17T00:00:42.926Z,27.42
2022-08-17T00:01:52.124Z,27.36
2022-08-17T00:03:03.600Z,27.42
2022-08-17T00:04:10.668Z,27.43
2022-08-17T00:05:15.647Z,27.43
2022-08-17T00:06:28.197Z,27.41
2022-08-17T00:07:29.944Z,27.38
2022-08-17T00:08:40.915Z,27.37
2022-08-17T00:09:42.529Z,27.33
2022-08-17T00:10:46.550Z,27.32
2022-08-17T00:12:43.445Z,27.18
2022-08-17T00:13:16.825Z,27.21
2022-08-17T00:14:19.692Z,27.25
2022-08-17T00:15:22.797Z,27.28
2022-08-17T00:16:56.149Z,27.26
2022-08-17T00:17:59.394Z,27.24
2022-08-17T00:19:08.745Z,27.15
2022-08-17T00:20:12.170Z,27.23
2022-08-17T00:21:16.669Z,27.17
2022-08-17T00:22:34.232Z,27.07
2022-08-17T00:23:39.859Z,27.15
2022-08-17T00:24:50.372Z,27.09
2022-08-17T00:25:52.942Z,26.99
2022-08-17T00:26:54.661Z,27.12
2022-08-17T00:27:56.497Z,27.15
2022-08-17T00:29:00.136Z,27.15
2022-08-17T00:30:02.098Z,27.15
2022-08-17T00:31:04.004Z,27.16
2022-08-17T00:33:14.382Z,27.10
2022-08-17T00:33:31.305Z,27.11
2022-08-17T00:34:33.270Z,27.10
2022-08-17T00:35:35.477Z,27.09
2022-08-17T00:36:37.602Z,27.08
2022-08-17T00:37:39.739Z,27.07
2022-08-17T00:38:41.718Z,27.07
2022-08-17T00:39:44.562Z,27.07
2022-08-17T00:40:55.856Z,27.06
2022-08-17T00:42:00.802Z,27.05
2022-08-17T00:43:22.365Z,27.02
2022-08-17T00:44:24.079Z,27.02
2022-08-17T00:45:32.138Z,27.01
2022-08-17T00:46:40.564Z,27.03
2022-08-17T00:47:43.740Z,27.01
2022-08-17T00:48:45.723Z,27.00
2022-08-17T00:49:47.444Z,27.00
2022-08-17T00:51:16.024Z,26.99
2022-08-17T00:52:23.212Z,26.99
2022-08-17T00:53:29.218Z,26.90
2022-08-17T00:54:42.008Z,26.98
2022-08-17T00:55:44.262Z,26.95
2022-08-17T00:56:56.882Z,26.93
2022-08-17T00:58:02.267Z,26.90
2022-08-17T00:59:06.760Z,26.91
2022-08-17T01:00:14.655Z,26.79
2022-08-17T01:01:21.228Z,26.89
2022-08-17T01:02:24.285Z,26.80
2022-08-17T01:03:26.372Z,26.85
2022-08-17T01:04:30.319Z,26.75
2022-08-17T01:05:34.544Z,26.73
2022-08-17T01:06:36.437Z,26.83
2022-08-17T01:07:38.822Z,26.84
2022-08-17T01:08:41.139Z,26.85
2022-08-17T01:09:44.191Z,26.72
2022-08-17T01:10:58.691Z,26.80
2022-08-17T01:12:06.330Z,26.80
2022-08-17T01:13:12.296Z,26.79
2022-08-17T01:14:14.577Z,26.80
2022-08-17T01:15:16.817Z,26.71
2022-08-17T01:16:26.241Z,26.82
2022-08-17T01:17:28.710Z,26.65
2022-08-17T01:18:32.214Z,26.73
2022-08-17T01:19:37.428Z,26.82
2022-08-17T01:20:48.669Z,26.80
2022-08-17T01:21:52.897Z,26.81
2022-08-17T01:22:54.757Z,26.81
2022-08-17T01:23:56.959Z,26.81
2022-08-17T01:25:01.864Z,26.80
2022-08-17T01:26:06.223Z,26.82
2022-08-17T01:27:10.736Z,26.69
2022-08-17T01:28:12.564Z,26.82
2022-08-17T01:29:35.374Z,26.81
2022-08-17T01:30:57.740Z,26.76
2022-08-17T01:32:03.752Z,26.77
2022-08-17T01:33:05.945Z,26.77
2022-08-17T01:34:10.584Z,26.78
2022-08-17T01:35:12.990Z,26.75
2022-08-17T01:36:14.758Z,26.75
2022-08-17T01:37:17.873Z,26.75
2022-08-17T01:38:19.879Z,26.70
2022-08-17T01:39:58.303Z,26.74
2022-08-17T01:41:12.738Z,26.66
2022-08-17T01:42:24.075Z,26.66
2022-08-17T01:43:32.891Z,26.65
2022-08-17T01:44:35.083Z,26.64
2022-08-17T01:45:46.903Z,26.63
2022-08-17T01:46:48.608Z,26.64
2022-08-17T01:47:51.302Z,26.65
2022-08-17T01:48:53.860Z,26.65
2022-08-17T01:49:56.605Z,26.66
2022-08-17T01:50:58.461Z,26.58
2022-08-17T01:52:06.934Z,26.61
2022-08-17T01:53:18.510Z,26.60
2022-08-17T01:54:21.228Z,26.56
2022-08-17T01:55:30.695Z,26.61
2022-08-17T01:56:35.691Z,26.61
2022-08-17T01:57:37.476Z,26.60
2022-08-17T01:58:40.490Z,26.58
2022-08-17T01:59:42.479Z,26.59
2022-08-17T02:00:59.464Z,26.58
2022-08-17T02:02:02.796Z,26.56
2022-08-17T02:03:04.956Z,26.56
2022-08-17T02:04:08.516Z,26.56
2022-08-17T02:05:10.395Z,26.57
2022-08-17T02:06:27.074Z,26.52
2022-08-17T02:07:29.884Z,26.52
2022-08-17T02:08:37.113Z,26.50
2022-08-17T02:09:41.213Z,26.50
2022-08-17T02:10:46.782Z,26.45
2022-08-17T02:11:48.690Z,26.48
2022-08-17T02:12:52.168Z,26.21
2022-08-17T02:13:55.035Z,26.45
2022-08-17T02:15:06.331Z,26.36
2022-08-17T02:16:08.122Z,26.46
2022-08-17T02:17:09.889Z,26.45
2022-08-17T02:18:13.625Z,26.44
2022-08-17T02:19:16.854Z,26.45
2022-08-17T02:20:41.609Z,26.38
2022-08-17T02:21:43.309Z,26.42
2022-08-17T02:22:47.926Z,26.39
2022-08-17T02:23:50.245Z,26.38
2022-08-17T02:25:00.551Z,26.40
2022-08-17T02:26:04.166Z,26.31
2022-08-17T02:27:06.998Z,26.39
2022-08-17T02:28:08.754Z,26.38
2022-08-17T02:29:10.600Z,26.39
2022-08-17T02:30:59.741Z,26.38
2022-08-17T02:31:36.629Z,26.38
2022-08-17T02:32:38.447Z,26.30
2022-08-17T02:33:42.623Z,26.30
2022-08-17T02:34:46.053Z,26.36
2022-08-17T02:35:47.880Z,26.31
2022-08-17T02:36:49.654Z,26.33
2022-08-17T02:37:51.956Z,26.32
2022-08-17T02:38:58.752Z,26.29
2022-08-17T02:40:00.664Z,26.36
2022-08-17T02:41:02.879Z,26.28
2022-08-17T02:42:05.659Z,26.36
2022-08-17T02:43:08.951Z,26.37
2022-08-17T02:44:11.102Z,26.37
2022-08-17T02:45:19.358Z,26.34
2022-08-17T02:46:21.217Z,26.31
2022-08-17T02:47:23.048Z,26.33
2022-08-17T02:48:31.104Z,26.34
2022-08-17T02:49:33.606Z,26.24
2022-08-17T02:50:35.306Z,26.31
2022-08-17T02:51:37.097Z,26.35
2022-08-17T02:52:42.473Z,26.35
2022-08-17T02:53:45.388Z,26.34
2022-08-17T02:54:47.659Z,26.26
2022-08-17T02:55:49.390Z,26.36
2022-08-17T02:56:51.162Z,26.31
2022-08-17T02:57:53.916Z,26.34
2022-08-17T02:58:55.675Z,26.30
2022-08-17T02:59:57.399Z,26.33
2022-08-17T03:00:59.143Z,26.36
2022-08-17T03:02:03.851Z,26.28
2022-08-17T03:03:06.269Z,26.32
2022-08-17T03:04:08.076Z,26.30
2022-08-17T03:05:13.140Z,26.31
2022-08-17T03:06:14.919Z,26.30
2022-08-17T03:07:16.649Z,26.32
2022-08-17T03:08:18.447Z,26.33
2022-08-17T03:09:20.195Z,26.31
2022-08-17T03:10:22.848Z,26.29
2022-08-17T03:11:24.582Z,26.31
2022-08-17T03:12:32.582Z,26.31
2022-08-17T03:13:34.427Z,26.29
2022-08-17T03:14:41.756Z,26.28
2022-08-17T03:15:46.308Z,26.29
2022-08-17T03:16:48.012Z,26.29
2022-08-17T03:17:50.690Z,26.29
2022-08-17T03:18:52.390Z,26.27
2022-08-17T03:19:54.158Z,26.19
2022-08-17T03:20:58.758Z,25.99
2022-08-17T03:22:00.509Z,26.13
2022-08-17T03:23:24.038Z,26.07
2022-08-17T03:24:28.766Z,26.08
2022-08-17T03:25:37.677Z,26.03
2022-08-17T03:26:40.385Z,25.95
2022-08-17T03:27:42.334Z,25.95
2022-08-17T03:28:49.940Z,25.93
2022-08-17T03:29:51.689Z,25.83
2022-08-17T03:30:53.509Z,25.87
2022-08-17T03:31:55.232Z,25.90
2022-08-17T03:33:00.212Z,25.88
2022-08-17T03:34:01.957Z,25.87
2022-08-17T03:35:03.878Z,25.86
2022-08-17T03:36:07.038Z,25.84
2022-08-17T03:37:09.186Z,25.77
2022-08-17T03:38:14.990Z,25.88
2022-08-17T03:39:17.110Z,25.88
2022-08-17T03:40:57.855Z,25.85
2022-08-17T03:41:40.716Z,25.87
2022-08-17T03:42:42.445Z,25.79
2022-08-17T03:43:44.145Z,25.81
2022-08-17T03:44:50.116Z,25.84
2022-08-17T03:46:28.690Z,25.86
2022-08-17T03:47:51.030Z,25.81
2022-08-17T03:49:11.081Z,25.84
2022-08-17T03:50:31.991Z,25.82
2022-08-17T03:51:52.383Z,25.79
2022-08-17T03:53:12.884Z,25.84
2022-08-17T03:54:32.959Z,25.70
2022-08-17T03:55:54.514Z,25.83
2022-08-17T03:57:05.473Z,25.85
2022-08-17T03:58:07.061Z,25.84
2022-08-17T03:59:11.088Z,25.78
2022-08-17T04:00:24.196Z,25.79
2022-08-17T04:01:27.024Z,25.80
2022-08-17T04:02:32.047Z,25.81
2022-08-17T04:03:33.965Z,25.83
2022-08-17T04:04:36.717Z,25.88
2022-08-17T04:05:39.030Z,25.95
2022-08-17T04:06:42.478Z,26.02
2022-08-17T04:07:44.356Z,26.08
2022-08-17T04:08:46.078Z,26.18
2022-08-17T04:09:48.130Z,26.25
2022-08-17T04:10:49.922Z,26.31
2022-08-17T04:11:52.156Z,26.37
2022-08-17T04:12:55.263Z,26.43
2022-08-17T04:13:57.054Z,26.43
2022-08-17T04:14:59.225Z,26.47
2022-08-17T04:16:00.977Z,26.54
2022-08-17T04:17:02.882Z,26.59
2022-08-17T04:18:04.681Z,26.79
2022-08-17T04:19:07.191Z,26.89
2022-08-17T04:20:09.626Z,27.01
2022-08-17T04:21:11.510Z,27.08
2022-08-17T04:22:32.869Z,26.98
2022-08-17T04:23:36.800Z,27.36
2022-08-17T04:24:38.556Z,27.22
2022-08-17T04:25:44.471Z,27.60
2022-08-17T04:26:53.196Z,27.71
2022-08-17T04:27:56.958Z,27.79
2022-08-17T04:28:59.115Z,27.78
2022-08-17T04:30:01.269Z,27.96
2022-08-17T04:31:03.055Z,28.03
2022-08-17T04:32:05.390Z,28.14
2022-08-17T04:33:11.327Z,28.24
2022-08-17T04:34:13.168Z,28.34
2022-08-17T04:35:21.953Z,28.44
2022-08-17T04:36:23.736Z,28.49
2022-08-17T04:37:25.456Z,28.70
2022-08-17T04:38:34.289Z,28.78
2022-08-17T04:39:36.080Z,29.01
2022-08-17T04:40:56.390Z,29.14
2022-08-17T04:42:07.305Z,29.37
2022-08-17T04:43:10.757Z,29.48
2022-08-17T04:44:12.855Z,29.40
2022-08-17T04:45:38.454Z,29.51
2022-08-17T04:46:40.173Z,29.54
2022-08-17T04:47:41.885Z,29.29
2022-08-17T04:48:47.174Z,29.57
2022-08-17T04:49:48.931Z,29.62
2022-08-17T04:50:51.821Z,29.68
2022-08-17T04:51:56.160Z,29.69
2022-08-17T04:52:58.855Z,29.64
2022-08-17T04:54:13.061Z,29.74
2022-08-17T04:55:15.376Z,29.75
2022-08-17T04:56:19.056Z,29.72
2022-08-17T04:57:20.837Z,29.65
2022-08-17T04:58:22.550Z,29.58
2022-08-17T04:59:24.287Z,29.50
2022-08-17T05:00:26.342Z,29.41
2022-08-17T05:01:31.571Z,29.31
2022-08-17T05:02:33.303Z,29.31
2022-08-17T05:03:36.317Z,29.28
2022-08-17T05:04:41.845Z,28.94
2022-08-17T05:05:49.390Z,29.06
2022-08-17T05:06:51.706Z,29.00
2022-08-17T05:08:00.312Z,28.99
2022-08-17T05:09:02.722Z,28.99
2022-08-17T05:10:05.171Z,29.01
2022-08-17T05:11:07.703Z,29.02
2022-08-17T05:12:10.077Z,29.22
2022-08-17T05:13:20.239Z,29.37
2022-08-17T05:14:22.427Z,29.50
2022-08-17T05:15:39.310Z,29.69
2022-08-17T05:16:49.449Z,29.83
2022-08-17T05:17:51.171Z,30.02
2022-08-17T05:18:53.611Z,30.23
2022-08-17T05:19:55.428Z,30.43
2022-08-17T05:20:57.860Z,30.56
2022-08-17T05:21:59.759Z,30.84
2022-08-17T05:23:10.101Z,30.98
2022-08-17T05:24:35.449Z,31.14
2022-08-17T05:25:41.390Z,31.26
2022-08-17T05:26:43.335Z,31.49
2022-08-17T05:27:45.567Z,31.62
2022-08-17T05:28:48.749Z,31.67
2022-08-17T05:29:52.317Z,31.72
2022-08-17T05:30:57.075Z,31.95
2022-08-17T05:31:58.767Z,32.17
2022-08-17T05:33:06.408Z,32.32
2022-08-17T05:34:08.182Z,32.54
2022-08-17T05:35:09.913Z,32.70
2022-08-17T05:36:41.831Z,32.85
2022-08-17T05:37:36.817Z,32.94
2022-08-17T05:38:38.553Z,32.90
2022-08-17T05:39:40.475Z,33.01
2022-08-17T05:40:42.999Z,33.07
2022-08-17T05:41:47.045Z,33.17
2022-08-17T05:42:50.274Z,33.16
2022-08-17T05:43:56.235Z,33.16
2022-08-17T05:44:58.982Z,33.33
2022-08-17T05:46:06.409Z,33.31
2022-08-17T05:47:09.821Z,33.28
2022-08-17T05:48:11.727Z,33.25
2022-08-17T05:49:18.022Z,33.23
2022-08-17T05:50:27.129Z,33.33
2022-08-17T05:51:34.266Z,33.41
2022-08-17T05:53:05.947Z,33.51
2022-08-17T05:54:18.171Z,33.83
2022-08-17T05:55:51.985Z,34.04
2022-08-17T05:57:24.140Z,34.25
2022-08-17T05:58:48.610Z,34.20
2022-08-17T06:00:02.380Z,34.12
2022-08-17T06:01:10.019Z,34.15
2022-08-17T06:02:49.573Z,34.05
2022-08-17T06:04:03.325Z,34.15
2022-08-17T06:05:16.578Z,34.19
2022-08-17T06:06:31.345Z,34.18
2022-08-17T06:07:42.539Z,34.36
2022-08-17T06:08:48.390Z,34.48
2022-08-17T06:10:14.842Z,34.71
2022-08-17T06:11:31.699Z,35.02
2022-08-17T06:12:43.064Z,35.32
2022-08-17T06:13:57.933Z,35.52
2022-08-17T06:15:25.033Z,35.64
2022-08-17T06:16:36.376Z,35.78
2022-08-17T06:17:38.796Z,35.94
2022-08-17T06:18:57.332Z,36.11
2022-08-17T06:20:10.646Z,36.33
2022-08-17T06:21:17.268Z,36.46
2022-08-17T06:22:29.171Z,36.67
2022-08-17T06:23:56.062Z,36.74
2022-08-17T06:25:10.265Z,36.67
2022-08-17T06:26:25.822Z,36.72
2022-08-17T06:27:55.742Z,36.85
2022-08-17T06:29:08.212Z,37.02
2022-08-17T06:30:59.809Z,37.03
2022-08-17T06:31:52.181Z,37.06
2022-08-17T06:32:59.660Z,37.20
2022-08-17T06:34:03.734Z,37.20
2022-08-17T06:35:11.626Z,37.09
2022-08-17T06:36:51.023Z,37.20
2022-08-17T06:38:38.189Z,37.33
2022-08-17T06:40:12.524Z,37.23
2022-08-17T06:41:22.946Z,37.07
2022-08-17T06:43:06.135Z,37.24
2022-08-17T06:44:43.597Z,37.17
2022-08-17T06:46:16.754Z,37.32
2022-08-17T06:47:29.330Z,37.40
2022-08-17T06:48:38.398Z,37.45
2022-08-17T06:49:55.295Z,37.55
2022-08-17T06:51:07.502Z,37.79
2022-08-17T06:52:45.799Z,37.69
2022-08-17T06:53:54.603Z,37.41
2022-08-17T06:55:05.320Z,37.41
2022-08-17T06:56:09.082Z,37.43
2022-08-17T06:57:22.956Z,37.56
2022-08-17T06:58:31.489Z,37.57
2022-08-17T06:59:55.414Z,37.58
2022-08-17T07:01:04.033Z,37.52
2022-08-17T07:02:09.966Z,37.51
2022-08-17T07:03:16.547Z,37.56
2022-08-17T07:04:26.505Z,37.77
2022-08-17T07:05:52.421Z,37.72
2022-08-17T07:07:24.816Z,37.60
2022-08-17T07:08:35.304Z,37.42
2022-08-17T07:09:38.135Z,37.14
2022-08-17T07:10:46.307Z,36.98
2022-08-17T07:11:53.002Z,36.92
2022-08-17T07:13:03.093Z,36.81
2022-08-17T07:14:25.905Z,36.90
2022-08-17T07:15:43.265Z,37.08
2022-08-17T07:16:50.831Z,37.14
2022-08-17T07:17:52.808Z,37.38
2022-08-17T07:18:57.379Z,37.63
2022-08-17T07:20:10.828Z,37.86
2022-08-17T07:21:41.001Z,37.95
2022-08-17T07:23:02.059Z,38.18
2022-08-17T07:24:29.839Z,38.17
2022-08-17T07:25:33.182Z,38.22
2022-08-17T07:26:35.027Z,38.08
2022-08-17T07:27:38.455Z,37.94
2022-08-17T07:28:40.435Z,38.06
2022-08-17T07:30:16.857Z,38.01
2022-08-17T07:31:18.597Z,38.05
2022-08-17T07:32:40.521Z,38.06
2022-08-17T07:33:59.878Z,38.16
2022-08-17T07:35:15.647Z,38.17
2022-08-17T07:36:29.539Z,38.25
2022-08-17T07:37:34.402Z,38.45
2022-08-17T07:38:54.431Z,38.59
2022-08-17T07:40:15.456Z,38.79
2022-08-17T07:41:21.029Z,38.81
2022-08-17T07:42:22.993Z,38.72
2022-08-17T07:43:34.664Z,38.83
2022-08-17T07:44:50.628Z,39.05
2022-08-17T07:46:21.728Z,39.07
2022-08-17T07:48:02.191Z,39.17
2022-08-17T07:49:03.858Z,39.02
2022-08-17T07:50:26.529Z,39.07
2022-08-17T07:51:39.559Z,39.01
2022-08-17T07:52:51.186Z,39.00
2022-08-17T07:54:13.596Z,39.05
2022-08-17T07:55:31.943Z,39.00
2022-08-17T07:56:42.658Z,39.07
2022-08-17T07:57:54.404Z,39.21
2022-08-17T07:59:12.526Z,39.49
2022-08-17T08:00:26.663Z,39.58
2022-08-17T08:01:39.743Z,39.66
2022-08-17T08:02:47.737Z,39.69
2022-08-17T08:03:52.651Z,39.87
2022-08-17T08:05:12.972Z,39.96
2022-08-17T08:06:21.003Z,39.99
2022-08-17T08:07:22.635Z,40.22
2022-08-17T08:08:42.754Z,40.34
2022-08-17T08:10:00.080Z,40.43
2022-08-17T08:11:35.819Z,40.25
2022-08-17T08:12:48.445Z,40.30
2022-08-17T08:13:55.493Z,40.42
2022-08-17T08:15:02.366Z,40.32
2022-08-17T08:16:24.596Z,40.14
2022-08-17T08:17:32.345Z,40.10
2022-08-17T08:18:54.787Z,40.21
2022-08-17T08:20:00.065Z,40.20
2022-08-17T08:21:10.658Z,40.28
2022-08-17T08:22:18.690Z,40.56
2022-08-17T08:23:41.633Z,40.56
2022-08-17T08:24:55.466Z,40.53
2022-08-17T08:26:23.497Z,40.65
2022-08-17T08:27:28.231Z,40.63
2022-08-17T08:28:29.865Z,40.41
2022-08-17T08:29:50.386Z,40.43
2022-08-17T08:31:03.630Z,40.51
2022-08-17T08:32:45.436Z,40.39
2022-08-17T08:33:55.087Z,40.30
2022-08-17T08:35:08.878Z,40.42
2022-08-17T08:37:12.523Z,40.47
2022-08-17T08:37:56.692Z,40.57
2022-08-17T08:39:06.432Z,40.68
2022-08-17T08:40:11.621Z,40.86
2022-08-17T08:41:59.047Z,41.00
2022-08-17T08:43:27.176Z,41.16
2022-08-17T08:45:00.196Z,41.06
2022-08-17T08:46:30.953Z,40.80
2022-08-17T08:48:22.873Z,40.82
2022-08-17T08:50:37.167Z,40.89
2022-08-17T08:51:59.499Z,40.87
2022-08-17T08:53:19.113Z,40.76
2022-08-17T08:54:39.658Z,40.74
2022-08-17T08:55:41.610Z,40.51
2022-08-17T08:57:21.475Z,40.51
2022-08-17T08:58:44.944Z,40.64
2022-08-17T09:00:05.079Z,40.57
2022-08-17T09:01:18.450Z,40.75
2022-08-17T09:02:45.594Z,40.95
2022-08-17T09:04:24.042Z,40.74
2022-08-17T09:05:56.130Z,40.76
2022-08-17T09:07:03.939Z,40.98
2022-08-17T09:08:27.331Z,40.79
2022-08-17T09:09:59.335Z,40.97
2022-08-17T09:12:02.320Z,41.07
2022-08-17T09:13:36.150Z,40.89
2022-08-17T09:14:45.347Z,40.87
2022-08-17T09:15:59.073Z,40.87
2022-08-17T09:17:14.121Z,40.92
2022-08-17T09:19:01.795Z,41.04
2022-08-17T09:20:04.561Z,41.10
2022-08-17T09:21:22.613Z,41.11
2022-08-17T09:22:37.749Z,41.05
2022-08-17T09:23:45.913Z,41.09
2022-08-17T09:24:57.505Z,41.06
2022-08-17T09:26:03.024Z,40.92
2022-08-17T09:27:11.475Z,40.86
2022-08-17T09:28:20.026Z,40.78
2022-08-17T09:29:27.121Z,40.78
2022-08-17T09:30:40.876Z,40.90
2022-08-17T09:31:50.038Z,41.23
2022-08-17T09:33:00.026Z,41.39
2022-08-17T09:34:13.139Z,41.61
2022-08-17T09:35:22.920Z,41.41
2022-08-17T09:36:45.053Z,41.64
2022-08-17T09:38:08.591Z,41.54
2022-08-17T09:39:17.322Z,41.51
2022-08-17T09:40:57.373Z,41.51
2022-08-17T09:42:06.927Z,41.26
2022-08-17T09:43:08.761Z,41.27
2022-08-17T09:44:40.266Z,41.30
2022-08-17T09:45:50.789Z,41.17
2022-08-17T09:47:01.851Z,41.12
2022-08-17T09:48:11.417Z,41.20
2022-08-17T09:49:15.096Z,41.16
2022-08-17T09:51:04.245Z,41.29
2022-08-17T09:52:01.579Z,41.14
2022-08-17T09:53:03.819Z,41.13
2022-08-17T09:54:37.667Z,41.29
2022-08-17T09:55:58.145Z,41.31
2022-08-17T09:57:29.269Z,41.25
2022-08-17T09:58:54.333Z,41.25
2022-08-17T10:00:19.036Z,41.26
2022-08-17T10:01:36.897Z,41.17
2022-08-17T10:03:09.873Z,41.10
2022-08-17T10:04:35.682Z,41.11
2022-08-17T10:05:56.422Z,41.02
2022-08-17T10:07:12.353Z,40.98
2022-08-17T10:08:35.818Z,41.04
2022-08-17T10:10:00.260Z,40.97
2022-08-17T10:11:19.950Z,41.07
2022-08-17T10:12:34.263Z,41.07
2022-08-17T10:13:59.503Z,40.82
2022-08-17T10:15:25.891Z,40.53
2022-08-17T10:16:38.429Z,40.34
2022-08-17T10:18:08.651Z,40.58
2022-08-17T10:19:22.999Z,40.58
2022-08-17T10:20:24.729Z,40.54
2022-08-17T10:21:45.376Z,40.65
2022-08-17T10:23:13.283Z,40.69
2022-08-17T10:25:21.738Z,40.64
2022-08-17T10:26:20.711Z,41.01
2022-08-17T10:27:39.536Z,41.32
2022-08-17T10:28:59.467Z,41.56
2022-08-17T10:30:04.967Z,41.68
2022-08-17T10:32:38.573Z,41.67
2022-08-17T10:34:01.990Z,41.54
2022-08-17T10:35:03.650Z,41.56
2022-08-17T10:36:23.476Z,41.62
2022-08-17T10:37:52.336Z,41.72
2022-08-17T10:39:27.613Z,41.45
2022-08-17T10:40:45.508Z,41.53
2022-08-17T10:41:54.173Z,41.58
2022-08-17T10:43:05.402Z,41.47
2022-08-17T10:44:39.217Z,41.52
2022-08-17T10:46:26.457Z,41.63
2022-08-17T10:47:18.544Z,41.52
2022-08-17T10:48:34.664Z,41.50
2022-08-17T10:49:54.219Z,41.49
2022-08-17T10:50:56.141Z,41.42
2022-08-17T10:52:00.348Z,41.40
2022-08-17T10:53:02.163Z,41.53
2022-08-17T10:54:06.583Z,41.74
2022-08-17T10:55:15.623Z,41.76
2022-08-17T10:56:19.638Z,41.95
2022-08-17T10:57:27.190Z,42.01
2022-08-17T10:58:38.435Z,42.15
2022-08-17T10:59:40.093Z,42.29
2022-08-17T11:00:42.571Z,42.18
2022-08-17T11:02:13.014Z,41.74
2022-08-17T11:03:23.860Z,41.83
2022-08-17T11:04:59.134Z,41.78
2022-08-17T11:06:19.676Z,41.84
2022-08-17T11:07:28.081Z,41.72
2022-08-17T11:08:57.662Z,41.79
2022-08-17T11:10:33.450Z,41.86
2022-08-17T11:11:45.463Z,41.73
2022-08-17T11:13:28.239Z,41.47
2022-08-17T11:15:01.670Z,41.21
2022-08-17T11:16:26.631Z,41.33
2022-08-17T11:17:41.790Z,41.45
2022-08-17T11:19:14.636Z,41.59
2022-08-17T11:20:25.515Z,41.72
2022-08-17T11:21:53.490Z,41.78
2022-08-17T11:23:14.819Z,41.68
2022-08-17T11:24:21.074Z,41.64
2022-08-17T11:25:43.961Z,41.48
2022-08-17T11:27:19.553Z,41.67
2022-08-17T11:28:34.476Z,41.58
2022-08-17T11:29:51.983Z,41.55
2022-08-17T11:30:59.696Z,41.41
2022-08-17T11:32:13.430Z,41.28
2022-08-17T11:33:30.436Z,41.40
2022-08-17T11:34:35.235Z,41.40
2022-08-17T11:35:49.773Z,41.50
2022-08-17T11:37:34.861Z,41.67
2022-08-17T11:38:58.146Z,41.89
2022-08-17T11:40:11.925Z,42.00
2022-08-17T11:41:27.554Z,42.03
2022-08-17T11:42:52.685Z,42.24
2022-08-17T11:44:25.654Z,42.24
2022-08-17T11:45:41.323Z,42.27
2022-08-17T11:47:19.792Z,42.24
2022-08-17T11:49:08.240Z,41.98
2022-08-17T11:50:50.640Z,41.64
2022-08-17T11:52:01.460Z,41.57
2022-08-17T11:53:03.439Z,41.48
2022-08-17T11:54:35.093Z,41.39
2022-08-17T11:55:44.444Z,41.40
2022-08-17T11:56:50.455Z,41.48
2022-08-17T11:58:29.526Z,41.55
2022-08-17T11:59:34.018Z,41.55
2022-08-17T12:00:45.012Z,41.46
2022-08-17T12:01:49.723Z,41.48
2022-08-17T12:03:54.356Z,41.48
2022-08-17T12:05:21.164Z,41.50
2022-08-17T12:06:44.798Z,41.42
2022-08-17T12:07:55.065Z,41.22
2022-08-17T12:09:07.212Z,41.10
2022-08-17T12:10:12.307Z,40.79
2022-08-17T12:12:11.109Z,40.89
2022-08-17T12:12:50.347Z,40.84
2022-08-17T12:13:57.735Z,40.89
2022-08-17T12:15:16.951Z,40.88
2022-08-17T12:16:21.213Z,40.96
2022-08-17T12:17:51.901Z,41.03
2022-08-17T12:18:54.256Z,40.95
2022-08-17T12:20:11.215Z,40.76
2022-08-17T12:21:37.639Z,40.70
2022-08-17T12:23:11.529Z,40.71
2022-08-17T12:24:37.423Z,40.72
2022-08-17T12:25:43.120Z,40.68
2022-08-17T12:26:52.479Z,40.67
2022-08-17T12:28:06.168Z,40.65
2022-08-17T12:29:18.261Z,40.71
2022-08-17T12:30:38.021Z,40.70
2022-08-17T12:31:45.758Z,40.64
2022-08-17T12:32:48.615Z,40.51
2022-08-17T12:33:51.956Z,40.58
2022-08-17T12:34:54.029Z,40.65
2022-08-17T12:35:59.829Z,40.72
2022-08-17T12:37:06.959Z,40.69
2022-08-17T12:38:26.708Z,40.72
2022-08-17T12:39:34.010Z,40.69
2022-08-17T12:40:36.216Z,40.64
2022-08-17T12:41:44.746Z,40.58
2022-08-17T12:43:01.020Z,40.51
2022-08-17T12:44:18.498Z,40.38
2022-08-17T12:45:29.441Z,40.33
2022-08-17T12:46:35.096Z,40.14
2022-08-17T12:47:37.794Z,40.00
2022-08-17T12:48:39.713Z,40.02
2022-08-17T12:50:28.549Z,40.00
2022-08-17T12:51:31.920Z,40.06
2022-08-17T12:52:38.542Z,40.04
2022-08-17T12:53:45.607Z,40.18
2022-08-17T12:55:01.135Z,40.12
2022-08-17T12:56:16.242Z,40.11
2022-08-17T12:57:20.403Z,40.01
2022-08-17T12:58:26.829Z,40.04
2022-08-17T12:59:30.151Z,40.08
2022-08-17T13:00:38.202Z,40.07
2022-08-17T13:01:42.249Z,39.85
2022-08-17T13:02:52.325Z,39.77
2022-08-17T13:03:59.883Z,39.81
2022-08-17T13:05:02.053Z,39.81
2022-08-17T13:06:07.446Z,39.93
2022-08-17T13:07:09.158Z,39.95
2022-08-17T13:08:20.735Z,39.98
2022-08-17T13:09:35.485Z,40.07
2022-08-17T13:10:38.207Z,39.99
2022-08-17T13:11:56.021Z,40.02
2022-08-17T13:13:03.526Z,39.92
2022-08-17T13:14:10.362Z,39.98
2022-08-17T13:15:31.464Z,40.05
2022-08-17T13:16:33.810Z,40.15
2022-08-17T13:17:37.012Z,40.20
2022-08-17T13:18:41.679Z,40.24
2022-08-17T13:19:51.480Z,40.13
2022-08-17T13:20:54.842Z,40.24
2022-08-17T13:22:00.125Z,40.32
2022-08-17T13:23:11.407Z,40.29
2022-08-17T13:24:21.471Z,40.29
2022-08-17T13:25:24.145Z,40.26
2022-08-17T13:27:01.223Z,40.15
2022-08-17T13:28:32.436Z,39.99
2022-08-17T13:29:51.438Z,40.05
2022-08-17T13:31:33.102Z,40.04
2022-08-17T13:32:50.973Z,39.99
2022-08-17T13:33:52.807Z,40.07
2022-08-17T13:35:13.052Z,40.13
2022-08-17T13:36:30.452Z,40.25
2022-08-17T13:37:36.015Z,40.22
2022-08-17T13:38:49.700Z,40.09
2022-08-17T13:39:54.024Z,40.12
2022-08-17T13:40:55.785Z,39.97
2022-08-17T13:41:58.023Z,40.00
2022-08-17T13:42:59.822Z,40.05
2022-08-17T13:44:02.317Z,40.09
2022-08-17T13:45:36.369Z,40.02
2022-08-17T13:46:38.690Z,40.12
2022-08-17T13:47:41.430Z,40.18
2022-08-17T13:48:43.606Z,40.24
2022-08-17T13:49:48.851Z,40.31
2022-08-17T13:50:57.029Z,40.36
2022-08-17T13:51:58.806Z,40.41
2022-08-17T13:53:00.743Z,40.48
2022-08-17T13:54:05.786Z,40.41
2022-08-17T13:55:21.025Z,40.35
2022-08-17T13:56:57.827Z,40.42
2022-08-17T13:58:05.058Z,40.43
2022-08-17T13:59:16.990Z,40.31
2022-08-17T14:00:39.472Z,40.31
2022-08-17T14:01:53.465Z,40.36
2022-08-17T14:02:55.694Z,40.40
2022-08-17T14:04:00.693Z,40.43
2022-08-17T14:05:06.059Z,40.29
2022-08-17T14:06:10.810Z,40.26
2022-08-17T14:07:12.930Z,40.21
2022-08-17T14:08:16.111Z,40.19
2022-08-17T14:09:19.890Z,40.05
2022-08-17T14:10:23.166Z,40.01
2022-08-17T14:11:24.991Z,40.06
2022-08-17T14:12:30.708Z,40.15
2022-08-17T14:13:32.428Z,40.12
2022-08-17T14:14:34.158Z,40.08
2022-08-17T14:15:55.776Z,40.08
2022-08-17T14:16:57.854Z,40.00
2022-08-17T14:17:59.660Z,40.09
2022-08-17T14:19:01.674Z,40.15
2022-08-17T14:20:05.041Z,40.16
2022-08-17T14:21:08.513Z,40.14
2022-08-17T14:22:18.681Z,40.07
2022-08-17T14:23:21.110Z,40.02
2022-08-17T14:24:35.250Z,39.84
2022-08-17T14:25:37.231Z,39.75
2022-08-17T14:26:39.070Z,39.68
2022-08-17T14:27:52.198Z,39.51
2022-08-17T14:28:56.468Z,39.43
2022-08-17T14:29:58.980Z,39.44
2022-08-17T14:31:01.369Z,39.39
2022-08-17T14:32:24.972Z,39.27
2022-08-17T14:33:28.320Z,39.25
2022-08-17T14:34:30.375Z,39.09
2022-08-17T14:35:32.119Z,39.05
2022-08-17T14:36:34.091Z,39.04
2022-08-17T14:37:36.640Z,38.97
2022-08-17T14:38:38.378Z,38.85
2022-08-17T14:39:40.296Z,38.81
2022-08-17T14:40:43.112Z,38.77
2022-08-17T14:41:45.376Z,38.70
2022-08-17T14:42:47.402Z,38.64
2022-08-17T14:43:50.363Z,38.51
2022-08-17T14:44:53.757Z,38.34
2022-08-17T14:45:58.582Z,38.21
2022-08-17T14:47:00.368Z,38.07
2022-08-17T14:48:04.613Z,37.88
2022-08-17T14:49:06.966Z,37.68
2022-08-17T14:50:11.836Z,37.71
2022-08-17T14:51:21.482Z,37.55
2022-08-17T14:52:23.216Z,37.54
2022-08-17T14:53:25.044Z,37.57
2022-08-17T14:54:34.232Z,37.49
2022-08-17T14:55:40.033Z,37.50
2022-08-17T14:56:45.277Z,37.36
2022-08-17T14:57:47.190Z,37.40
2022-08-17T14:58:49.271Z,37.34
2022-08-17T14:59:54.429Z,37.28
2022-08-17T15:00:57.628Z,37.20
2022-08-17T15:02:00.764Z,37.13
2022-08-17T15:03:03.592Z,37.11
2022-08-17T15:04:05.952Z,37.09
2022-08-17T15:05:08.155Z,37.07
2022-08-17T15:06:09.941Z,37.06
2022-08-17T15:07:12.074Z,37.09
2022-08-17T15:08:14.025Z,37.12
2022-08-17T15:09:17.083Z,37.06
2022-08-17T15:10:19.723Z,37.05
2022-08-17T15:11:21.449Z,37.13
2022-08-17T15:12:27.491Z,37.04
2022-08-17T15:13:33.761Z,37.09
2022-08-17T15:14:36.376Z,37.04
2022-08-17T15:15:38.060Z,36.91